Aviation Digital Data Service (ADDS)

Output produced by METARs form (2330 UTC 01 September 2014)
found at http://aviationweather.gov/adds/metars/
 
KLFT 012037Z 0121/0218 18011KT P6SM VCTS FEW035CB 
     FM020100 17004KT P6SM BKN250